Ford, Washington
Current Conditions -  °F | °C
As of 5:53 AM on Thursday 27 Nov 2014 (Local Time) from KDEW Reporting Station
Overcast Overcast  
Wind Chill: 38°   Ceiling: 6000
Heat Index: 43°   Visibility: 10mi
Dew Point: 38°   Wind: 9mph
Humidity: 82%   Direction: 170°S
Pressure: 29.86"   Gusts: NA
Location:  47.91°N, 117.81°W
Report Text: KDEW 271353Z AUTO 17008KT 10SM BKN060 OVC100 06/03 A2986 RMK AO2 SLP124 T00610033
Loading
Personal Weather Stations






























Interactive Weather Map New forecast layout! Learn more

10-Day Weather Forecast

Advertisements
Track Severe Weather on mobile